Time;durP1;ratioP1;P1;durP2;ratioP2;P2;SDS_P1;SDS_P2;PMS_P1;PMS_P2;Temp;Humidity;BMP_temperature;BMP_pressure;BME280_temperature;BME280_humidity;BME280_pressure;Samples;Min_cycle;Max_cycle;Signal;HPM_P1;HPM_P2
2022/06/01 00:01:49;;;;;;;4.63;2.60;;;;;;;10.61;74.07;99146.28;5068839;28;20474;-55
2022/06/01 00:04:15;;;;;;;5.55;2.75;;;;;;;10.62;74.33;99141.72;5068647;28;20017;-56
2022/06/01 00:06:41;;;;;;;6.82;3.40;;;;;;;10.46;75.02;99144.16;5067985;28;20047;-55
2022/06/01 00:09:06;;;;;;;3.90;2.97;;;;;;;10.26;76.11;99149.13;5068447;28;20021;-56
2022/06/01 00:11:32;;;;;;;5.68;3.13;;;;;;;10.43;75.92;99139.28;5067446;28;22018;-56
2022/06/01 00:13:57;;;;;;;6.10;3.33;;;;;;;10.54;74.97;99140.28;5068373;28;20056;-55
2022/06/01 00:16:23;;;;;;;5.43;2.90;;;;;;;10.74;74.79;99145.13;5068205;28;20886;-56
2022/06/01 00:18:48;;;;;;;6.28;2.63;;;;;;;10.74;74.72;99150.50;5068068;28;20025;-56
2022/06/01 00:21:14;;;;;;;5.50;2.60;;;;;;;10.66;75.38;99157.06;5069566;28;20372;-56
2022/06/01 00:23:39;;;;;;;5.40;2.88;;;;;;;10.69;76.01;99159.25;5062388;28;20028;-56
2022/06/01 00:26:05;;;;;;;6.68;2.85;;;;;;;10.30;78.13;99167.19;5068252;28;20032;-55
2022/06/01 00:28:31;;;;;;;4.45;2.72;;;;;;;10.52;78.08;99175.34;5041673;28;20024;-56
2022/06/01 00:30:56;;;;;;;6.13;2.65;;;;;;;10.50;77.71;99174.75;5067393;28;20052;-56
2022/06/01 00:33:22;;;;;;;4.43;3.00;;;;;;;10.28;80.13;99171.16;5068344;28;20020;-53
2022/06/01 00:35:47;;;;;;;5.25;3.15;;;;;;;10.25;80.03;99158.25;5068153;28;20218;-54
2022/06/01 00:38:12;;;;;;;10.95;3.42;;;;;;;9.97;81.96;99146.50;5049241;28;20497;-53
2022/06/01 00:40:38;;;;;;;5.78;3.20;;;;;;;10.04;83.76;99146.38;5068895;28;20029;-55
2022/06/01 00:43:20;;;;;;;8.68;3.50;;;;;;;9.92;84.21;99141.06;5067501;28;20028;-54
2022/06/01 00:45:46;;;;;;;4.97;3.72;;;;;;;9.81;85.03;99126.69;5067151;28;20043;-54
2022/06/01 00:48:11;;;;;;;7.00;3.95;;;;;;;9.78;85.58;99126.34;5068228;28;20457;-55
2022/06/01 00:50:39;;;;;;;9.10;4.30;;;;;;;9.89;87.62;99139.69;5043096;28;20024;-55
2022/06/01 00:53:07;;;;;;;7.35;3.88;;;;;;;10.01;85.60;99141.47;5041105;28;20090;-55
2022/06/01 00:55:35;;;;;;;7.40;4.00;;;;;;;10.18;84.32;99141.50;5064772;28;20127;-55
2022/06/01 00:58:13;;;;;;;8.60;4.00;;;;;;;9.94;87.00;99138.97;5063179;28;20433;-53
2022/06/01 01:00:39;;;;;;;8.40;4.00;;;;;;;9.84;88.12;99130.75;5038185;28;20032;-55
2022/06/01 01:03:06;;;;;;;7.60;3.83;;;;;;;9.96;86.70;99134.19;5067541;28;20050;-54
2022/06/01 01:05:33;;;;;;;7.00;4.05;;;;;;;10.02;86.97;99133.22;5033788;28;20194;-55
2022/06/01 01:07:58;;;;;;;6.30;3.97;;;;;;;9.94;88.86;99136.28;5047057;28;20415;-55
2022/06/01 01:10:24;;;;;;;9.02;4.28;;;;;;;9.91;86.74;99137.56;5069509;28;20490;-55
2022/06/01 01:12:56;;;;;;;8.25;4.32;;;;;;;9.83;87.21;99142.50;5066672;28;20425;-55
2022/06/01 01:15:21;;;;;;;8.45;4.63;;;;;;;9.70;88.05;99179.19;5051018;28;20040;-55
2022/06/01 01:17:48;;;;;;;5.28;4.03;;;;;;;9.84;87.54;99203.03;5037683;28;20455;-55
2022/06/01 01:20:14;;;;;;;7.97;3.72;;;;;;;9.89;86.19;99208.47;5048003;28;20115;-54
2022/06/01 01:23:05;;;;;;;6.90;3.53;;;;;;;9.86;86.95;99172.28;5049732;28;20048;-53
2022/06/01 01:25:36;;;;;;;9.32;3.88;;;;;;;9.88;85.63;99172.03;5064636;28;20033;-54
2022/06/01 01:28:02;;;;;;;10.93;4.32;;;;;;;9.89;87.93;99160.28;5048726;28;20029;-54
2022/06/01 01:30:39;;;;;;;5.07;3.65;;;;;;;9.63;87.93;99154.44;5068318;28;20067;-54
2022/06/01 01:33:04;;;;;;;7.50;3.88;;;;;;;9.76;88.79;99160.56;5066102;28;20028;-53
2022/06/01 01:35:30;;;;;;;8.93;4.65;;;;;;;9.76;90.16;99157.88;5066729;28;20830;-54
2022/06/01 01:37:55;;;;;;;9.80;4.30;;;;;;;9.43;92.83;99146.81;5066538;28;20021;-54
2022/06/01 01:40:25;;;;;;;6.85;4.57;;;;;;;9.29;94.36;99135.56;5045159;28;20029;-55
2022/06/01 01:42:52;;;;;;;7.70;4.27;;;;;;;9.18;92.07;99139.06;5042964;28;20186;-54
2022/06/01 01:45:24;;;;;;;9.80;4.90;;;;;;;9.07;93.92;99129.22;5037860;28;20526;-54
2022/06/01 01:47:51;;;;;;;8.30;4.57;;;;;;;9.02;94.16;99115.75;5045129;28;20037;-55
2022/06/01 01:50:16;;;;;;;11.23;4.80;;;;;;;9.27;91.76;99104.78;5066892;28;20021;-55
2022/06/01 01:52:44;;;;;;;6.55;4.47;;;;;;;9.57;86.79;99096.53;5048967;28;20028;-55
2022/06/01 01:55:15;;;;;;;9.90;4.10;;;;;;;9.58;86.78;99094.66;5037166;28;20036;-53
2022/06/01 01:57:56;;;;;;;8.00;4.07;;;;;;;9.47;86.74;99101.69;5035553;28;20134;-54
2022/06/01 02:00:36;;;;;;;7.95;4.40;;;;;;;9.45;87.40;99112.63;5067289;28;20032;-54
2022/06/01 02:03:39;;;;;;;8.02;4.43;;;;;;;9.52;88.25;99123.19;5063077;28;20020;-55
2022/06/01 02:06:37;;;;;;;6.05;4.38;;;;;;;9.49;92.60;99121.00;4985367;28;20069;-55
2022/06/01 02:09:07;;;;;;;7.85;4.55;;;;;;;9.46;92.67;99114.25;5048427;28;20052;-55
2022/06/01 02:14:51;;;;;;;7.50;4.40;;;;;;;9.56;90.77;99119.00;5062189;28;20043;-55
2022/06/01 02:17:39;;;;;;;8.30;4.43;;;;;;;9.39;90.72;99113.56;5062293;28;20016;-55
2022/06/01 02:20:05;;;;;;;9.65;4.82;;;;;;;9.32;91.30;99101.38;5039044;28;20025;-55
2022/06/01 02:22:30;;;;;;;9.02;4.80;;;;;;;9.33;90.84;99103.00;5066658;28;20044;-55
2022/06/01 02:24:56;;;;;;;8.02;4.88;;;;;;;9.38;89.71;99105.78;5035038;28;20032;-52
2022/06/01 02:27:21;;;;;;;6.30;4.25;;;;;;;9.33;90.64;99105.69;5053983;28;20032;-54
2022/06/01 02:29:54;;;;;;;14.93;7.28;;;;;;;9.36;92.26;99113.22;5032250;28;20043;-55
2022/06/01 02:32:19;;;;;;;15.98;7.13;;;;;;;9.20;93.34;99104.91;5053618;28;20036;-54
2022/06/01 02:34:45;;;;;;;15.25;6.13;;;;;;;9.17;94.62;99110.72;5043082;28;20032;-55
2022/06/01 02:37:11;;;;;;;11.93;5.90;;;;;;;8.88;96.03;99109.81;5068384;28;20051;-55
2022/06/01 02:39:38;;;;;;;7.85;5.18;;;;;;;8.82;98.53;99108.91;5051772;28;20115;-54
2022/06/01 02:45:11;;;;;;;8.13;4.97;;;;;;;8.64;99.84;99101.03;5070112;28;20044;-55
2022/06/01 02:47:38;;;;;;;6.40;5.00;;;;;;;8.67;100.00;99100.56;5069213;28;20044;-56
2022/06/01 02:50:06;;;;;;;12.13;5.03;;;;;;;8.70;100.00;99108.09;5051953;28;20475;-55
2022/06/01 02:52:31;;;;;;;7.55;4.88;;;;;;;8.70;99.67;99105.44;5069224;28;20047;-54
2022/06/01 02:54:57;;;;;;;8.05;5.18;;;;;;;8.67;99.71;99107.78;5052404;28;20032;-54
2022/06/01 02:57:22;;;;;;;10.32;5.18;;;;;;;8.64;99.76;99109.84;5071238;28;20352;-53
2022/06/01 02:59:48;;;;;;;8.25;4.90;;;;;;;8.60;99.04;99111.34;5068370;28;20444;-55
2022/06/01 03:02:13;;;;;;;8.38;4.88;;;;;;;8.56;99.05;99114.72;5069885;28;20024;-54
2022/06/01 03:04:40;;;;;;;8.18;5.22;;;;;;;8.61;99.30;99114.84;5043123;28;20041;-55
2022/06/01 03:07:05;;;;;;;8.80;5.95;;;;;;;8.49;99.88;99109.50;5067017;28;20036;-55
2022/06/01 03:09:31;;;;;;;10.20;6.05;;;;;;;8.45;100.00;99112.88;5069818;28;20085;-55
2022/06/01 03:11:56;;;;;;;15.80;6.00;;;;;;;8.48;99.33;99107.88;5069516;28;20025;-54
2022/06/01 03:14:22;;;;;;;10.30;5.65;;;;;;;8.58;97.94;99109.97;5069347;28;20044;-55
2022/06/01 03:16:47;;;;;;;10.35;6.35;;;;;;;8.58;98.25;99112.63;5069971;28;20024;-54
2022/06/01 03:19:13;;;;;;;8.23;5.32;;;;;;;8.55;97.94;99124.59;5070083;28;20032;-55
2022/06/01 03:21:40;;;;;;;9.13;5.45;;;;;;;8.56;99.42;99123.56;5069276;28;20029;-54
2022/06/01 03:24:05;;;;;;;7.30;5.28;;;;;;;8.57;100.00;99127.03;5069700;28;20065;-54
2022/06/01 03:26:31;;;;;;;10.60;5.60;;;;;;;8.43;100.00;99124.56;5068407;28;20105;-54
2022/06/01 03:28:56;;;;;;;8.52;5.30;;;;;;;8.42;100.00;99135.50;5069354;28;20032;-55
2022/06/01 03:31:22;;;;;;;10.32;5.63;;;;;;;8.50;100.00;99126.34;5069992;28;20052;-55
2022/06/01 03:33:47;;;;;;;7.93;5.65;;;;;;;8.63;100.00;99132.25;5069455;28;20471;-55
2022/06/01 03:36:13;;;;;;;15.43;5.30;;;;;;;8.71;100.00;99130.28;5068206;28;20078;-55
2022/06/01 03:38:38;;;;;;;6.95;5.28;;;;;;;8.62;100.00;99124.50;5068165;28;20033;-56
2022/06/01 03:41:04;;;;;;;10.52;5.20;;;;;;;8.60;100.00;99126.56;5054699;28;20089;-54
2022/06/01 03:43:30;;;;;;;9.00;4.55;;;;;;;8.51;99.00;99120.78;5069777;28;20039;-56
2022/06/01 03:45:56;;;;;;;6.07;4.30;;;;;;;8.58;97.62;99134.00;5068519;28;20046;-56
2022/06/01 03:48:30;;;;;;;9.48;4.70;;;;;;;8.65;96.72;99129.38;5051810;28;20028;-55
2022/06/01 03:50:56;;;;;;;9.20;4.53;;;;;;;8.86;95.59;99135.97;5045150;28;20499;-56
2022/06/01 03:53:23;;;;;;;7.32;4.60;;;;;;;8.95;95.50;99141.78;5069512;28;20463;-55
2022/06/01 03:55:49;;;;;;;5.90;4.35;;;;;;;8.95;95.32;99139.94;5068980;28;20502;-53
2022/06/01 03:58:15;;;;;;;8.30;5.10;;;;;;;9.03;94.70;99146.78;5068854;28;20035;-55
2022/06/01 04:00:41;;;;;;;6.60;4.85;;;;;;;8.82;95.28;99146.31;5046195;28;20032;-55
2022/06/01 04:03:07;;;;;;;8.40;5.18;;;;;;;8.66;97.40;99141.66;5066574;28;20024;-54
2022/06/01 04:05:33;;;;;;;6.07;4.57;;;;;;;8.76;98.36;99147.28;5067633;28;20028;-54
2022/06/01 04:07:58;;;;;;;9.65;5.30;;;;;;;8.88;96.58;99157.13;5067457;28;20112;-54
2022/06/01 04:10:24;;;;;;;7.93;4.75;;;;;;;8.99;97.22;99154.47;5050179;28;20039;-54
2022/06/01 04:12:49;;;;;;;7.10;4.55;;;;;;;8.98;97.44;99154.69;5042765;28;20077;-55
2022/06/01 04:15:15;;;;;;;7.05;4.00;;;;;;;8.77;95.97;99150.75;5066491;28;20020;-55
2022/06/01 04:17:40;;;;;;;5.55;4.05;;;;;;;9.00;93.76;99163.28;5067031;28;20071;-54
2022/06/01 04:20:07;;;;;;;5.40;3.90;;;;;;;9.13;92.44;99168.38;5069064;28;20024;-55
2022/06/01 04:22:32;;;;;;;6.60;4.10;;;;;;;9.09;94.66;99167.25;5068088;28;20115;-55
2022/06/01 04:24:58;;;;;;;7.47;3.90;;;;;;;8.97;92.28;99164.56;5041675;28;20107;-54
2022/06/01 04:27:23;;;;;;;4.57;3.10;;;;;;;9.06;90.57;99157.00;5067603;28;20466;-54
2022/06/01 04:29:49;;;;;;;7.40;3.60;;;;;;;9.24;89.68;99162.22;5067169;28;20035;-55
2022/06/01 04:32:27;;;;;;;4.72;3.67;;;;;;;9.25;88.71;99155.81;5068570;28;20036;-54
2022/06/01 04:34:53;;;;;;;5.47;3.65;;;;;;;9.14;90.15;99163.88;5034630;28;20047;-54
2022/06/01 04:37:18;;;;;;;5.03;3.63;;;;;;;9.37;90.32;99163.00;5068950;28;20024;-54
2022/06/01 04:39:43;;;;;;;5.90;3.38;;;;;;;9.65;88.54;99171.06;5066271;28;20425;-54
2022/06/01 04:42:09;;;;;;;6.07;3.30;;;;;;;9.83;86.39;99164.72;5045571;28;20037;-55
2022/06/01 04:44:34;;;;;;;4.95;3.20;;;;;;;9.64;86.61;99163.28;5067030;28;20363;-55
2022/06/01 04:47:00;;;;;;;5.45;2.90;;;;;;;9.77;85.08;99170.22;5067865;28;20669;-54
2022/06/01 04:49:25;;;;;;;7.20;3.33;;;;;;;9.82;84.62;99163.09;5068314;28;20359;-57
2022/06/01 04:51:51;;;;;;;4.32;2.67;;;;;;;9.75;85.56;99175.00;5067386;28;20466;-55
2022/06/01 04:54:16;;;;;;;6.55;3.05;;;;;;;9.80;85.13;99172.41;5067444;28;20021;-56
2022/06/01 04:56:42;;;;;;;5.53;3.25;;;;;;;10.06;83.50;99168.34;5046899;28;20031;-54
2022/06/01 04:59:07;;;;;;;7.22;3.65;;;;;;;10.40;81.47;99165.75;5068316;28;20028;-57
2022/06/01 05:01:33;;;;;;;6.35;3.08;;;;;;;10.45;82.10;99158.59;5067613;28;20047;-56
2022/06/01 05:03:58;;;;;;;5.88;3.08;;;;;;;10.52;81.02;99167.28;5068050;28;20249;-62
2022/06/01 05:06:24;;;;;;;4.93;3.35;;;;;;;10.89;80.74;99164.13;5068034;28;20028;-56
2022/06/01 05:08:50;;;;;;;4.28;2.72;;;;;;;12.25;73.27;99167.91;5050248;28;20028;-56
2022/06/01 05:11:16;;;;;;;4.22;2.55;;;;;;;12.19;73.79;99168.13;5066629;28;20028;-56
2022/06/01 05:13:41;;;;;;;5.30;2.70;;;;;;;14.42;64.64;99180.31;5066120;28;20024;-56
2022/06/01 05:16:07;;;;;;;5.75;2.47;;;;;;;15.97;61.63;99176.22;5067531;28;20025;-56
2022/06/01 05:18:32;;;;;;;5.32;2.60;;;;;;;15.69;62.02;99181.22;5066589;28;20445;-56
2022/06/01 05:20:58;;;;;;;3.75;2.50;;;;;;;16.89;58.06;99186.38;5049997;28;20052;-56
2022/06/01 05:23:24;;;;;;;3.67;2.33;;;;;;;15.94;59.90;99184.88;5065771;28;20397;-56
2022/06/01 05:25:50;;;;;;;8.98;2.53;;;;;;;15.29;64.39;99190.25;5066198;28;20482;-57
2022/06/01 05:28:17;;;;;;;4.10;2.50;;;;;;;15.16;64.85;99193.53;5067974;28;20021;-56
2022/06/01 05:30:43;;;;;;;8.95;2.40;;;;;;;18.27;54.65;99192.91;5050092;28;20025;-57
2022/06/01 05:33:08;;;;;;;4.20;2.40;;;;;;;19.72;49.28;99194.72;5067203;28;20477;-56
2022/06/01 05:35:34;;;;;;;6.30;2.40;;;;;;;18.21;54.21;99199.47;5067689;28;20045;-55
2022/06/01 05:38:01;;;;;;;5.45;2.35;;;;;;;19.44;49.87;99200.16;5065698;28;20109;-56
2022/06/01 05:40:27;;;;;;;4.82;2.42;;;;;;;19.90;48.89;99203.91;5048764;28;20115;-57
2022/06/01 05:42:52;;;;;;;3.92;2.22;;;;;;;19.91;46.59;99200.06;5067478;28;20033;-56
2022/06/01 05:45:17;;;;;;;5.03;1.98;;;;;;;19.10;49.07;99198.63;5067320;28;20448;-54
2022/06/01 05:47:43;;;;;;;3.38;2.20;;;;;;;19.66;48.46;99199.44;5068131;28;20141;-57
2022/06/01 05:50:08;;;;;;;5.25;2.35;;;;;;;18.21;50.08;99204.09;5067854;28;20263;-56
2022/06/01 05:52:38;;;;;;;4.30;2.30;;;;;;;19.35;48.89;99204.69;5067006;28;20028;-55
2022/06/01 05:55:07;;;;;;;5.35;2.17;;;;;;;17.82;52.95;99206.00;5066726;28;20020;-55
2022/06/01 05:57:33;;;;;;;4.90;2.30;;;;;;;17.43;53.20;99206.94;5067768;28;20474;-54
2022/06/01 05:59:59;;;;;;;4.75;2.03;;;;;;;20.19;47.50;99195.34;5066946;28;20070;-57
2022/06/01 06:02:24;;;;;;;4.60;2.10;;;;;;;18.88;48.92;99203.91;5054892;28;20071;-57
2022/06/01 06:04:49;;;;;;;4.57;2.20;;;;;;;18.67;49.06;99206.09;5066157;28;20359;-57
2022/06/01 06:07:15;;;;;;;3.83;2.08;;;;;;;16.71;54.44;99195.19;5067192;28;20490;-56
2022/06/01 06:09:40;;;;;;;4.65;1.90;;;;;;;16.75;55.77;99207.06;5068946;28;20463;-55
2022/06/01 06:12:06;;;;;;;4.30;2.05;;;;;;;18.72;48.99;99204.13;5069594;28;20016;-56
2022/06/01 06:14:32;;;;;;;5.20;2.08;;;;;;;20.14;45.54;99203.63;5073383;28;20040;-56
2022/06/01 06:16:57;;;;;;;3.60;1.67;;;;;;;17.25;51.65;99199.59;5071414;28;20466;-55
2022/06/01 06:19:22;;;;;;;2.65;1.80;;;;;;;16.84;54.26;99207.28;5071283;28;20467;-56
2022/06/01 06:21:48;;;;;;;2.85;2.03;;;;;;;20.82;44.69;99208.03;5070915;28;20037;-55
2022/06/01 06:24:16;;;;;;;4.43;2.00;;;;;;;21.17;44.44;99208.25;5071267;28;20024;-57
2022/06/01 06:26:42;;;;;;;3.65;1.92;;;;;;;19.67;47.87;99216.56;5069587;28;20443;-56
2022/06/01 06:29:09;;;;;;;5.28;2.17;;;;;;;21.75;42.59;99218.13;5065448;28;20047;-55
2022/06/01 06:31:34;;;;;;;5.93;2.13;;;;;;;20.15;44.95;99216.94;5070213;28;20028;-56
2022/06/01 06:34:00;;;;;;;3.22;1.90;;;;;;;19.59;46.50;99221.63;5069747;28;20039;-56
2022/06/01 06:36:25;;;;;;;5.05;2.20;;;;;;;17.92;51.41;99223.22;5070406;28;20040;-57
2022/06/01 06:38:50;;;;;;;4.57;2.00;;;;;;;19.35;46.78;99218.28;5069735;28;20078;-55
2022/06/01 06:41:16;;;;;;;5.15;2.22;;;;;;;18.17;51.06;99222.06;5071021;28;20036;-56
2022/06/01 06:43:42;;;;;;;7.70;2.08;;;;;;;22.18;42.86;99228.31;5070051;28;20032;-55
2022/06/01 06:46:14;;;;;;;3.80;1.90;;;;;;;21.83;41.26;99232.09;5070145;28;20471;-56
2022/06/01 06:48:40;;;;;;;2.42;1.52;;;;;;;22.53;39.13;99230.28;5050688;28;20790;-56
2022/06/01 06:51:05;;;;;;;2.85;1.60;;;;;;;23.27;38.58;99226.50;5068830;28;20030;-56
2022/06/01 06:53:31;;;;;;;3.25;1.70;;;;;;;24.25;37.40;99227.28;5070755;28;20471;-55
2022/06/01 06:55:56;;;;;;;4.50;1.90;;;;;;;24.25;36.28;99216.31;5068419;28;20020;-57
2022/06/01 06:58:22;;;;;;;5.55;1.98;;;;;;;23.58;37.26;99223.47;5069497;28;20459;-57
2022/06/01 07:00:48;;;;;;;3.10;1.70;;;;;;;23.00;37.11;99223.00;5070347;28;20032;-56
2022/06/01 07:03:14;;;;;;;6.55;2.03;;;;;;;24.33;36.75;99228.34;5062536;28;20054;-57
2022/06/01 07:08:24;;;;;;;7.03;1.80;;;;;;;24.01;35.31;99227.13;5069978;28;20129;-56
2022/06/01 07:10:50;;;;;;;5.45;1.60;;;;;;;23.53;35.70;99220.91;5069627;28;20032;-56
2022/06/01 07:13:16;;;;;;;4.35;1.55;;;;;;;25.17;34.90;99223.59;5069968;28;20056;-56
2022/06/01 07:15:41;;;;;;;4.57;1.90;;;;;;;24.31;34.97;99222.38;5042503;28;20431;-56
2022/06/01 07:18:07;;;;;;;6.57;1.70;;;;;;;25.01;34.76;99225.34;5069697;28;20082;-56
2022/06/01 07:20:33;;;;;;;4.13;1.75;;;;;;;24.15;35.61;99224.94;5068906;28;20021;-56
2022/06/01 07:22:58;;;;;;;5.15;1.85;;;;;;;23.76;36.63;99221.47;5069678;28;20575;-56
2022/06/01 07:25:24;;;;;;;2.40;1.70;;;;;;;24.90;34.55;99226.91;5068910;28;20051;-56
2022/06/01 07:27:50;;;;;;;3.88;1.70;;;;;;;24.36;36.09;99224.94;5068938;28;20478;-55
2022/06/01 07:30:16;;;;;;;5.00;1.77;;;;;;;24.29;35.13;99222.75;5069143;28;20044;-55
2022/06/01 07:32:45;;;;;;;3.63;1.90;;;;;;;24.37;36.42;99228.50;5070845;28;20032;-56
2022/06/01 07:35:10;;;;;;;4.05;1.88;;;;;;;24.22;35.32;99227.94;5064040;28;20036;-56
2022/06/01 07:43:07;;;;;;;6.40;1.98;;;;;;;24.37;34.26;99217.53;5065973;28;20097;-55
2022/06/01 07:45:34;;;;;;;9.23;1.80;;;;;;;24.40;36.10;99219.59;5068503;28;20020;-54
2022/06/01 07:48:00;;;;;;;3.63;1.98;;;;;;;24.89;34.42;99223.38;5069336;28;20067;-56
2022/06/01 07:50:25;;;;;;;4.13;2.00;;;;;;;25.83;33.05;99221.78;5069563;28;20467;-55
2022/06/01 07:52:50;;;;;;;3.58;1.70;;;;;;;24.45;35.02;99213.91;5068410;28;20383;-55
2022/06/01 07:55:16;;;;;;;3.17;1.80;;;;;;;26.31;32.20;99213.81;5051108;28;20528;-56
2022/06/01 07:57:41;;;;;;;3.95;1.80;;;;;;;24.79;34.32;99214.75;5069299;28;20028;-55
2022/06/01 08:00:07;;;;;;;2.80;1.77;;;;;;;25.68;33.43;99200.53;5068727;28;20032;-55
2022/06/01 08:02:33;;;;;;;3.53;1.70;;;;;;;25.80;33.87;99206.00;5068970;28;20035;-55
2022/06/01 08:04:58;;;;;;;3.05;1.40;;;;;;;26.14;29.70;99215.72;5044902;28;20020;-54
2022/06/01 08:07:24;;;;;;;2.30;1.20;;;;;;;25.07;31.18;99213.03;5069959;28;20829;-55
2022/06/01 08:09:49;;;;;;;3.83;1.52;;;;;;;23.39;32.95;99204.72;5068865;28;20036;-55
2022/06/01 08:14:59;;;;;;;2.00;1.30;;;;;;;24.72;32.58;99213.38;5065491;28;20031;-55
2022/06/01 08:17:24;;;;;;;2.05;1.33;;;;;;;25.03;32.13;99205.81;5068679;28;20033;-55
2022/06/01 08:19:49;;;;;;;2.95;1.42;;;;;;;25.03;31.54;99216.78;5068190;28;20039;-55
2022/06/01 08:22:15;;;;;;;2.30;1.50;;;;;;;25.78;30.98;99203.59;5068955;28;20028;-54
2022/06/01 08:24:41;;;;;;;3.15;1.40;;;;;;;25.67;29.51;99218.16;5068309;28;20095;-55
2022/06/01 08:27:06;;;;;;;5.60;1.40;;;;;;;25.21;29.68;99210.00;5068342;28;20162;-54
2022/06/01 08:29:32;;;;;;;4.57;1.70;;;;;;;24.69;30.58;99208.56;5068244;28;20028;-55
2022/06/01 08:31:57;;;;;;;3.35;1.33;;;;;;;25.53;29.71;99212.97;5067938;28;20028;-55
2022/06/01 08:34:23;;;;;;;3.65;1.58;;;;;;;24.91;30.99;99207.41;5067264;28;20071;-55
2022/06/01 08:36:48;;;;;;;4.25;1.50;;;;;;;24.84;31.67;99214.56;5051179;28;20032;-54
2022/06/01 08:39:13;;;;;;;4.40;1.70;;;;;;;25.18;31.01;99219.69;5067114;28;20023;-55
2022/06/01 08:41:39;;;;;;;2.90;1.60;;;;;;;24.76;31.78;99218.97;5049598;28;20033;-56
2022/06/01 08:44:31;;;;;;;4.55;1.80;;;;;;;24.98;31.73;99215.03;5067903;28;20030;-55
2022/06/01 08:46:59;;;;;;;3.60;1.40;;;;;;;24.80;31.75;99210.91;5034418;28;20119;-55
2022/06/01 08:49:29;;;;;;;4.25;1.65;;;;;;;21.67;35.50;99213.44;5045992;28;20025;-55
2022/06/01 08:51:54;;;;;;;3.10;1.88;;;;;;;23.84;33.22;99212.41;5049633;28;20096;-55
2022/06/01 08:54:20;;;;;;;3.53;2.00;;;;;;;23.61;33.45;99213.78;5049588;28;20089;-55
2022/06/01 08:56:51;;;;;;;3.65;1.83;;;;;;;23.16;32.81;99214.28;5068598;28;20507;-55
2022/06/01 08:59:38;;;;;;;3.47;1.73;;;;;;;24.14;32.58;99209.66;5067734;28;20478;-54
2022/06/01 09:02:22;;;;;;;3.20;1.70;;;;;;;25.11;32.43;99207.66;5045361;28;20035;-55
2022/06/01 09:04:58;;;;;;;3.50;1.70;;;;;;;23.98;31.21;99214.91;5065436;28;20198;-55
2022/06/01 09:07:31;;;;;;;5.63;1.98;;;;;;;21.45;36.65;99202.63;5066266;28;20040;-54
2022/06/01 09:10:15;;;;;;;4.88;1.77;;;;;;;23.16;34.11;99208.81;5049903;28;20120;-54
2022/06/01 09:12:41;;;;;;;4.28;1.50;;;;;;;21.90;35.01;99214.13;5067330;28;20150;-53
2022/06/01 09:15:18;;;;;;;4.00;1.63;;;;;;;21.86;35.39;99215.09;5067461;28;20055;-55
2022/06/01 09:17:44;;;;;;;4.60;1.83;;;;;;;23.66;32.32;99216.34;5040611;28;20127;-54
2022/06/01 09:22:59;;;;;;;2.03;1.38;;;;;;;24.16;31.30;99218.31;5063297;28;20180;-55
2022/06/01 09:25:32;;;;;;;2.85;1.50;;;;;;;24.02;31.50;99217.78;5043720;28;20457;-54
2022/06/01 09:28:00;;;;;;;5.13;1.52;;;;;;;24.44;31.01;99215.06;5066827;28;20028;-54
2022/06/01 09:30:31;;;;;;;2.00;1.23;;;;;;;25.33;29.60;99223.72;5032821;28;20083;-55
2022/06/01 09:33:30;;;;;;;3.28;1.30;;;;;;;23.42;30.95;99223.22;5067367;28;20029;-54
2022/06/01 09:36:08;;;;;;;4.00;1.40;;;;;;;21.61;34.85;99219.34;5066042;28;20055;-54
2022/06/01 09:38:40;;;;;;;3.00;1.55;;;;;;;21.35;35.15;99217.31;5064966;28;21558;-52
2022/06/01 09:41:10;;;;;;;2.95;1.48;;;;;;;21.22;35.03;99216.28;5066969;28;20121;-54
2022/06/01 09:43:38;;;;;;;3.65;1.33;;;;;;;21.44;34.19;99218.19;5053552;28;20402;-55
2022/06/01 09:46:04;;;;;;;2.33;1.23;;;;;;;20.31;36.05;99217.38;5052412;28;20478;-54
2022/06/01 09:48:31;;;;;;;3.70;1.27;;;;;;;20.52;36.19;99214.19;5071361;28;20036;-53
2022/06/01 09:51:07;;;;;;;4.38;1.40;;;;;;;22.08;34.16;99214.97;5053193;28;20025;-54
2022/06/01 09:53:42;;;;;;;1.70;1.17;;;;;;;21.85;34.19;99216.22;5070446;28;20128;-55
2022/06/01 09:56:08;;;;;;;2.58;1.20;;;;;;;21.98;33.68;99218.00;5070751;28;20028;-54
2022/06/01 10:07:07;;;;;;;1.77;1.30;;;;;;;22.08;34.02;99219.63;5070035;28;20051;-53
2022/06/01 10:09:33;;;;;;;1.83;1.10;;;;;;;22.95;32.33;99214.97;5070990;28;20043;-54
2022/06/01 10:11:59;;;;;;;1.60;1.20;;;;;;;21.25;34.64;99210.19;5046832;28;20039;-55
2022/06/01 10:14:34;;;;;;;3.30;1.25;;;;;;;21.37;35.33;99208.78;5053215;28;20036;-55
2022/06/01 10:17:22;;;;;;;3.47;1.17;;;;;;;21.40;35.10;99206.28;5071211;28;20067;-54
2022/06/01 10:20:21;;;;;;;3.13;1.30;;;;;;;22.50;33.21;99212.59;5070537;28;20064;-55
2022/06/01 10:22:57;;;;;;;1.30;1.20;;;;;;;21.81;34.08;99209.78;5068764;28;20047;-54
2022/06/01 10:25:30;;;;;;;2.92;1.50;;;;;;;21.55;33.69;99207.78;5056012;28;20475;-54
2022/06/01 10:28:01;;;;;;;3.25;2.00;;;;;;;21.62;33.35;99213.59;5042825;28;20036;-54
2022/06/01 10:30:37;;;;;;;2.20;1.35;;;;;;;21.28;34.46;99208.78;5021518;28;20480;-55
2022/06/01 10:33:11;;;;;;;2.65;1.25;;;;;;;21.19;33.88;99205.19;5049544;28;20060;-55
2022/06/01 10:35:44;;;;;;;4.10;1.40;;;;;;;21.54;33.78;99200.72;5054811;28;20033;-53
2022/06/01 10:38:18;;;;;;;6.07;1.67;;;;;;;21.46;34.02;99201.50;5068999;28;20031;-55
2022/06/01 10:41:07;;;;;;;1.48;1.20;;;;;;;22.93;30.70;99210.94;5044437;28;20387;-54
2022/06/01 10:43:41;;;;;;;;;;;;;;;22.83;31.59;99206.63;5047733;28;20032;-52
2022/06/01 10:46:13;;;;;;;2.72;1.25;;;;;;;21.48;33.13;99210.16;5051641;28;20354;-56
2022/06/01 10:48:44;;;;;;;2.53;1.50;;;;;;;21.70;33.08;99207.34;5070571;28;20037;-53
2022/06/01 10:51:15;;;;;;;1.80;1.23;;;;;;;23.02;31.89;99209.03;5026995;28;20028;-54
2022/06/01 10:53:55;;;;;;;3.83;1.40;;;;;;;22.68;31.68;99216.13;5046952;28;20156;-53
2022/06/01 10:56:21;;;;;;;2.95;1.50;;;;;;;22.31;32.16;99212.91;5048059;28;20028;-53
2022/06/01 10:58:47;;;;;;;1.38;1.20;;;;;;;22.34;32.46;99211.47;5041220;28;20032;-55
2022/06/01 11:01:51;;;;;;;2.60;1.30;;;;;;;22.16;32.60;99197.78;5070527;28;20032;-55
2022/06/01 11:04:48;;;;;;;4.07;2.05;;;;;;;21.46;32.66;99196.84;5055108;28;20035;-55
2022/06/01 11:07:32;;;;;;;2.30;1.30;;;;;;;20.90;34.23;99196.38;5016249;28;20127;-54
2022/06/01 11:10:03;;;;;;;4.70;1.92;;;;;;;21.37;34.64;99200.63;5063194;28;20045;-53
2022/06/01 11:12:34;;;;;;;2.38;1.50;;;;;;;21.66;33.46;99202.84;5065573;28;20033;-53
2022/06/01 11:15:11;;;;;;;1.58;1.30;;;;;;;21.35;34.08;99200.16;5070980;28;20025;-54
2022/06/01 11:17:39;;;;;;;3.55;1.50;;;;;;;21.51;33.29;99198.63;5022844;28;20542;-52
2022/06/01 11:20:38;;;;;;;3.20;1.50;;;;;;;22.15;34.29;99196.19;5036906;28;20032;-52
2022/06/01 11:23:16;;;;;;;1.90;1.33;;;;;;;22.42;32.81;99191.59;5054432;28;20036;-53
2022/06/01 11:25:56;;;;;;;2.70;1.30;;;;;;;21.84;33.59;99198.22;5059978;28;20030;-53
2022/06/01 11:28:27;;;;;;;;;;;;;;;21.33;33.65;99206.69;5033463;28;20031;-53
2022/06/01 11:31:01;;;;;;;1.70;1.25;;;;;;;21.61;34.26;99203.00;5068388;28;19920;-54
2022/06/01 11:33:37;;;;;;;4.90;1.40;;;;;;;22.09;33.09;99194.75;5068409;28;20495;-52
2022/06/01 11:36:37;;;;;;;1.40;1.13;;;;;;;22.76;33.26;99198.91;5046539;28;20494;-52
2022/06/01 11:39:14;;;;;;;2.15;1.25;;;;;;;22.62;32.55;99195.59;5062668;28;20394;-52
2022/06/01 11:41:41;;;;;;;2.40;1.38;;;;;;;22.86;31.95;99189.56;5041606;28;20517;-53
2022/06/01 11:44:20;;;;;;;1.75;1.48;;;;;;;23.01;31.69;99189.09;5041953;28;20036;-50
2022/06/01 11:46:53;;;;;;;4.67;1.40;;;;;;;22.80;30.82;99191.69;5043041;28;20379;-53
2022/06/01 11:49:31;;;;;;;3.38;1.40;;;;;;;22.26;33.82;99193.19;5050224;28;20289;-50
2022/06/01 11:52:17;;;;;;;3.28;1.38;;;;;;;22.37;35.67;99189.81;5068549;28;20100;-51
2022/06/01 11:54:43;;;;;;;6.95;1.80;;;;;;;21.40;38.53;99189.13;5044019;28;20387;-53
2022/06/01 11:57:26;;;;;;;5.43;1.58;;;;;;;20.72;37.16;99191.97;5067901;28;20025;-53
2022/06/01 11:59:52;;;;;;;7.00;1.65;;;;;;;21.28;39.25;99193.22;5068798;28;20463;-52
2022/06/01 12:02:43;;;;;;;6.03;1.80;;;;;;;21.33;37.72;99190.34;5058581;28;20086;-53
2022/06/01 12:05:14;;;;;;;5.13;1.80;;;;;;;20.92;38.13;99187.09;5066705;28;20036;-53
2022/06/01 12:07:45;;;;;;;7.20;1.70;;;;;;;21.54;38.67;99181.63;5049664;28;20037;-53
2022/06/01 12:10:44;;;;;;;5.15;1.98;;;;;;;22.06;37.35;99184.47;5047337;28;20490;-55
2022/06/01 12:13:31;;;;;;;12.27;2.60;;;;;;;21.24;38.09;99185.97;5065805;28;20678;-55
2022/06/01 12:16:25;;;;;;;7.78;2.20;;;;;;;19.31;40.61;99187.38;5068369;28;20312;-54